This is the latest recevied weather packets stored in our database for station/object LU3HGB-WX. If no packets are shown the sender has not sent any weather packets the latest 1 day(s).
| Time | Temp. | Humidity | Pressure | Rain* | Wind** | Luminosity | Snow |
|---|---|---|---|---|---|---|---|
| 1778086660 | 27.22° C | 44% | 1008 hPa | 0 mm | - | 688 W/m² | - |
| 1778086360 | 27.22° C | 43% | 1008 hPa | 0 mm | - | 693 W/m² | - |
| 1778086060 | 26.67° C | 47% | 1008 hPa | 0 mm | - | 695 W/m² | - |
| 1778085760 | 26.67° C | 48% | 1008 hPa | 0 mm | - | 696 W/m² | - |
| 1778085160 | 26.67° C | 47% | 1008 hPa | 0 mm | - | 702 W/m² | - |
| 1778084560 | 26.67° C | 45% | 1008 hPa | 0 mm | - | 700 W/m² | - |
| 1778084260 | 26.67° C | 45% | 1008 hPa | 0 mm | - | 702 W/m² | - |
| 1778083960 | 26.11° C | 47% | 1008 hPa | 0 mm | - | 701 W/m² | - |
| 1778083062 | 26.11° C | 48% | 1008 hPa | 0 mm | - | 695 W/m² | - |
| 1778082460 | 25° C | 48% | 1008 hPa | 0 mm | - | 691 W/m² | - |
| 1778082160 | 25° C | 51% | 1008 hPa | 0 mm | - | 687 W/m² | - |
| 1778080960 | 23.89° C | 53% | 1008 hPa | 0 mm | - | 667 W/m² | - |
| 1778080660 | 23.89° C | 52% | 1008 hPa | 0 mm | - | 660 W/m² | - |
| 1778080361 | 23.89° C | 54% | 1009 hPa | 0 mm | - | 652 W/m² | - |
| 1778080060 | 23.89° C | 54% | 1009 hPa | 0 mm | - | 606 W/m² | - |
| 1778079160 | 23.33° C | 53% | 1009 hPa | 0 mm | - | 616 W/m² | - |
| 1778078560 | 23.33° C | 56% | 1009 hPa | 0 mm | - | 597 W/m² | - |
| 1778078260 | 23.33° C | 56% | 1009 hPa | 0 mm | - | 586 W/m² | - |
| 1778077060 | 22.22° C | 63% | 1009 hPa | 0 mm | - | 539 W/m² | - |
| 1778076460 | 22.78° C | 63% | 1009 hPa | 0 mm | - | 511 W/m² | - |
| 1778075560 | 21.67° C | 66% | 1010 hPa | 0 mm | - | 466 W/m² | - |
| 1778075260 | 21.11° C | 69% | 1010 hPa | 0 mm | - | 454 W/m² | - |
| 1778074362 | 19.44° C | 76% | 1010 hPa | 0 mm | - | 405 W/m² | - |
| 1778074060 | 19.44° C | 77% | 1010 hPa | 0 mm | - | 391 W/m² | - |
| 1778073760 | 18.89° C | 80% | 1010 hPa | 0 mm | - | 375 W/m² | - |
* Rain latest hour (hover to see other rain measurements)
** Current wind speed in m/s (hover to see current wind gust speed)